Time;durP1;ratioP1;P1;durP2;ratioP2;P2;SDS_P1;SDS_P2;PMS_P1;PMS_P2;Temp;Humidity;BMP_temperature;BMP_pressure;BME280_temperature;BME280_humidity;BME280_pressure;Samples;Min_cycle;Max_cycle;Signal;HPM_P1;HPM_P2
2023/01/20 00:00:25;;;;;;;4.87;2.97;;;16.20;81.00;;;;;;10568035;27;20097;-26
2023/01/20 00:05:27;;;;;;;9.95;2.08;;;16.30;80.40;;;;;;10551300;28;20134;-27
2023/01/20 00:10:29;;;;;;;4.70;2.50;;;16.30;80.30;;;;;;10566573;28;20071;-27
2023/01/20 00:15:32;;;;;;;3.83;2.63;;;16.30;79.90;;;;;;10548617;28;20081;-25
2023/01/20 00:20:34;;;;;;;5.35;3.08;;;16.30;79.60;;;;;;10559674;28;20055;-26
2023/01/20 00:25:36;;;;;;;3.63;2.10;;;16.20;80.40;;;;;;10558406;28;20047;-26
2023/01/20 00:30:40;;;;;;;2.58;1.90;;;16.30;79.60;;;;;;10562447;28;20047;-26
2023/01/20 00:35:42;;;;;;;3.70;2.03;;;16.30;79.20;;;;;;10569435;28;20067;-28
2023/01/20 00:40:44;;;;;;;2.70;1.90;;;16.30;78.50;;;;;;10553317;28;20063;-25
2023/01/20 00:45:47;;;;;;;2.63;1.83;;;16.10;79.80;;;;;;10552924;28;20079;-26
2023/01/20 00:50:49;;;;;;;4.22;2.20;;;16.20;79.00;;;;;;10568333;28;20043;-27
2023/01/20 00:55:51;;;;;;;4.53;2.03;;;16.30;78.10;;;;;;10569763;28;20092;-26
2023/01/20 01:00:57;;;;;;;3.43;2.33;;;16.30;78.20;;;;;;10561534;27;20047;-26
2023/01/20 01:06:10;;;;;;;4.28;2.72;;;16.20;78.20;;;;;;10561920;28;20109;-26
2023/01/20 01:11:13;;;;;;;3.63;1.75;;;16.10;79.20;;;;;;10562076;28;20743;-26
2023/01/20 01:16:16;;;;;;;4.80;2.00;;;16.10;78.60;;;;;;10566575;28;20074;-26
2023/01/20 01:21:18;;;;;;;2.60;1.95;;;16.20;77.80;;;;;;10562172;28;20079;-26
2023/01/20 01:26:20;;;;;;;4.20;2.00;;;16.20;77.50;;;;;;10563370;28;20076;-26
2023/01/20 01:31:23;;;;;;;4.75;2.60;;;16.20;77.80;;;;;;10558374;28;20096;-26
2023/01/20 01:36:25;;;;;;;3.88;2.00;;;16.20;77.80;;;;;;10550370;27;20072;-27
2023/01/20 01:41:27;;;;;;;3.53;2.30;;;16.10;78.10;;;;;;10560199;27;20066;-27
2023/01/20 01:46:31;;;;;;;3.07;2.30;;;16.10;77.90;;;;;;10551412;28;20064;-26
2023/01/20 01:51:36;;;;;;;4.93;2.60;;;16.00;78.00;;;;;;10556328;28;20098;-28
2023/01/20 01:56:40;;;;;;;3.38;2.08;;;15.90;78.40;;;;;;10555877;28;20500;-25
2023/01/20 02:01:48;;;;;;;3.20;1.92;;;16.00;77.90;;;;;;10560969;27;20047;-26
2023/01/20 02:06:53;;;;;;;2.97;2.00;;;16.00;77.40;;;;;;10555381;28;20062;-26
2023/01/20 02:11:58;;;;;;;2.67;2.15;;;16.10;77.10;;;;;;10565933;28;20635;-25
2023/01/20 02:17:12;;;;;;;3.10;1.85;;;16.00;76.80;;;;;;10556991;28;20071;-26
2023/01/20 02:22:24;;;;;;;3.25;1.70;;;16.00;77.10;;;;;;10560240;28;20097;-25
2023/01/20 02:27:42;;;;;;;2.83;2.00;;;16.00;76.80;;;;;;10549194;28;20126;-26
2023/01/20 02:32:54;;;;;;;3.15;2.47;;;15.90;77.20;;;;;;10553765;28;20637;-25
2023/01/20 02:38:11;;;;;;;4.53;2.27;;;15.90;77.10;;;;;;10560563;28;20611;-26
2023/01/20 02:43:20;;;;;;;5.20;1.92;;;16.00;76.70;;;;;;10565649;28;20407;-25
2023/01/20 02:48:27;;;;;;;2.63;1.73;;;15.80;76.80;;;;;;10556772;28;20122;-25
2023/01/20 02:53:33;;;;;;;4.35;1.85;;;15.80;77.20;;;;;;10555816;28;20145;-24
2023/01/20 02:58:41;;;;;;;2.10;1.73;;;15.90;77.00;;;;;;10557827;28;20047;-26
2023/01/20 03:03:46;;;;;;;2.72;2.25;;;15.60;78.20;;;;;;10554391;28;20087;-26
2023/01/20 03:08:52;;;;;;;2.85;1.77;;;15.70;77.90;;;;;;10557357;28;20130;-26
2023/01/20 03:13:59;;;;;;;5.72;2.33;;;15.80;76.50;;;;;;10555490;28;20040;-26
2023/01/20 03:19:03;;;;;;;2.90;1.95;;;15.70;76.10;;;;;;10557214;28;21381;-26
2023/01/20 03:24:06;;;;;;;5.47;2.15;;;15.70;77.30;;;;;;10563290;28;20116;-25
2023/01/20 03:29:11;;;;;;;3.17;1.85;;;15.70;75.70;;;;;;10556578;28;20048;-23
2023/01/20 03:34:18;;;;;;;2.85;1.55;;;15.70;77.00;;;;;;10570418;28;20105;-25
2023/01/20 03:39:21;;;;;;;2.80;1.77;;;15.70;76.90;;;;;;10567774;28;20468;-28
2023/01/20 03:44:31;;;;;;;2.92;1.67;;;15.70;76.70;;;;;;10557809;28;20084;-26
2023/01/20 03:49:44;;;;;;;2.63;1.70;;;15.70;75.50;;;;;;10570301;28;20666;-26
2023/01/20 03:54:48;;;;;;;;;;;15.90;75.70;;;;;;10565508;27;20507;-26
2023/01/20 03:59:52;;;;;;;4.70;2.13;;;15.10;78.70;;;;;;10576949;27;20021;-26
2023/01/20 04:04:56;;;;;;;1.83;1.30;;;15.40;77.80;;;;;;10566120;28;20051;-26
2023/01/20 04:10:03;;;;;;;2.75;1.95;;;15.80;75.90;;;;;;10569490;28;20126;-25
2023/01/20 04:15:07;;;;;;;3.53;2.10;;;15.40;77.80;;;;;;10556476;28;20047;-26
2023/01/20 04:20:15;;;;;;;14.73;8.48;;;15.20;79.00;;;;;;10566965;28;20052;-26
2023/01/20 04:25:23;;;;;;;3.65;2.30;;;13.40;85.50;;;;;;10551222;28;20134;-25
2023/01/20 04:30:25;;;;;;;14.02;5.97;;;14.50;86.10;;;;;;10571979;28;20052;-26
2023/01/20 04:35:29;;;;;;;10.02;5.30;;;13.20;90.20;;;;;;10559898;28;20060;-28
2023/01/20 04:40:31;;;;;;;12.98;6.45;;;14.30;84.40;;;;;;10563707;28;20075;-25
2023/01/20 04:45:33;;;;;;;15.13;7.37;;;13.60;90.40;;;;;;10559970;28;20413;-25
2023/01/20 04:50:39;;;;;;;4.55;3.20;;;12.30;71.10;;;;;;10560420;28;20047;-25
2023/01/20 04:55:41;;;;;;;7.93;4.97;;;12.40;97.60;;;;;;10557814;28;20079;-27
2023/01/20 05:00:43;;;;;;;4.20;2.33;;;10.30;99.90;;;;;;10559047;28;20047;-25
2023/01/20 05:05:52;;;;;;;2.63;2.00;;;14.50;86.80;;;;;;10563448;28;20138;-26
2023/01/20 05:10:54;;;;;;;4.68;2.00;;;15.30;78.70;;;;;;10555298;28;20556;-26
2023/01/20 05:15:56;;;;;;;3.38;2.17;;;15.50;76.80;;;;;;10562877;28;20241;-28
2023/01/20 05:20:59;;;;;;;3.45;1.40;;;15.70;75.30;;;;;;10553028;28;20102;-27
2023/01/20 05:26:01;;;;;;;2.15;1.77;;;15.80;75.30;;;;;;10553981;28;20051;-26
2023/01/20 05:31:03;;;;;;;3.83;1.47;;;13.70;91.60;;;;;;10559338;27;20044;-26
2023/01/20 05:36:07;;;;;;;4.85;2.13;;;13.40;91.60;;;;;;10562403;28;20129;-24
2023/01/20 05:41:10;;;;;;;3.10;1.70;;;12.40;98.50;;;;;;10555021;28;20040;-27
2023/01/20 05:46:12;;;;;;;3.42;1.90;;;15.40;84.30;;;;;;10563586;28;20052;-27
2023/01/20 05:51:15;;;;;;;1.87;1.50;;;15.50;80.00;;;;;;10559705;27;20048;-26
2023/01/20 05:56:17;;;;;;;2.05;1.63;;;15.90;77.90;;;;;;10561841;28;20527;-28
2023/01/20 06:01:19;;;;;;;2.87;1.60;;;16.20;75.80;;;;;;10557105;27;20201;-27
2023/01/20 06:06:22;;;;;;;4.23;1.27;;;16.30;74.70;;;;;;10552164;27;20442;-27
2023/01/20 06:11:24;;;;;;;2.28;1.30;;;16.50;74.10;;;;;;10559861;27;20055;-25
2023/01/20 06:16:26;;;;;;;6.63;1.65;;;16.40;74.30;;;;;;10555588;28;20116;-27
2023/01/20 06:21:29;;;;;;;2.17;1.40;;;16.40;74.80;;;;;;10562541;28;20445;-26
2023/01/20 06:26:31;;;;;;;3.20;1.50;;;16.40;75.00;;;;;;10553811;28;20146;-25
2023/01/20 06:31:33;;;;;;;4.30;1.53;;;16.50;74.80;;;;;;10559286;28;20067;-26
2023/01/20 06:36:36;;;;;;;5.27;1.90;;;16.50;74.30;;;;;;10557180;28;20157;-25
2023/01/20 06:41:38;;;;;;;2.95;1.70;;;16.10;80.00;;;;;;10553942;28;20047;-25
2023/01/20 06:46:40;;;;;;;1.50;1.13;;;17.00;72.70;;;;;;10561317;28;20539;-27
2023/01/20 06:51:43;;;;;;;3.10;1.83;;;17.10;71.60;;;;;;10552952;28;20050;-26
2023/01/20 06:56:45;;;;;;;3.00;1.38;;;15.10;82.20;;;;;;10559122;28;20500;-25
2023/01/20 07:14:56;;;;;;;2.75;1.20;;;13.00;94.50;;;;;;10567284;27;20266;-24
2023/01/20 07:19:58;;;;;;;3.33;0.77;;;13.30;97.20;;;;;;10525861;28;20056;-26
2023/01/20 07:25:00;;;;;;;4.82;1.23;;;14.30;81.80;;;;;;10531215;28;20132;-24
2023/01/20 07:30:03;;;;;;;1.65;0.95;;;10.90;99.90;;;;;;10523431;28;20040;-26
2023/01/20 07:35:06;;;;;;;2.92;1.40;;;15.70;85.10;;;;;;10527751;28;20097;-25
2023/01/20 07:40:09;;;;;;;4.88;1.13;;;13.80;94.40;;;;;;10527823;28;20095;-26
2023/01/20 07:45:12;;;;;;;10.23;2.03;;;10.70;99.90;;;;;;10527085;28;20052;-26
2023/01/20 07:50:15;;;;;;;4.60;1.38;;;10.60;99.90;;;;;;10526059;28;20096;-26
2023/01/20 07:55:17;;;;;;;1.48;0.70;;;9.80;99.90;;;;;;10526648;28;20123;-25
2023/01/20 08:00:20;;;;;;;6.40;1.00;;;11.10;99.90;;;;;;10526444;28;20063;-25
2023/01/20 08:05:22;;;;;;;2.55;0.90;;;8.80;99.90;;;;;;10529346;28;20052;-26
2023/01/20 08:10:24;;;;;;;1.95;0.60;;;10.60;99.90;;;;;;10521497;28;20439;-25
2023/01/20 08:15:27;;;;;;;1.95;1.00;;;9.00;99.90;;;;;;10525443;28;20074;-26
2023/01/20 08:20:30;;;;;;;;;;;9.30;99.90;;;;;;10524983;28;20098;-27
2023/01/20 08:25:32;;;;;;;4.45;1.30;;;11.90;99.90;;;;;;10495180;28;19974;-25
2023/01/20 08:30:35;;;;;;;4.05;0.63;;;8.10;99.90;;;;;;10504291;28;20048;-29
2023/01/20 08:35:37;;;;;;;3.47;0.70;;;7.30;99.90;;;;;;10493011;28;20109;-27
2023/01/20 08:40:41;;;;;;;4.70;0.60;;;10.30;99.90;;;;;;10487337;28;20134;-26
2023/01/20 08:45:44;;;;;;;4.13;0.70;;;10.60;99.90;;;;;;10488056;28;20102;-25
2023/01/20 08:50:46;;;;;;;2.10;0.80;;;11.90;92.30;;;;;;10484438;28;20094;-26
2023/01/20 08:55:55;;;;;;;0.98;0.60;;;15.10;88.80;;;;;;10490233;28;20037;-27
2023/01/20 09:00:59;;;;;;;3.53;1.05;;;12.10;98.20;;;;;;10493565;28;20045;-25
2023/01/20 09:06:02;;;;;;;4.13;0.77;;;16.10;76.10;;;;;;10490353;28;20136;-27
2023/01/20 09:11:05;;;;;;;2.28;0.85;;;16.40;72.60;;;;;;10488887;28;20488;-27
2023/01/20 09:16:10;;;;;;;3.03;1.00;;;16.50;71.20;;;;;;10495164;28;20119;-26
2023/01/20 09:21:12;;;;;;;2.30;0.60;;;16.50;70.10;;;;;;10488575;28;20044;-27
2023/01/20 09:26:14;;;;;;;2.17;0.65;;;16.40;71.70;;;;;;10490815;28;20044;-26
2023/01/20 09:31:18;;;;;;;4.63;0.75;;;16.60;69.40;;;;;;10493597;28;20148;-26
2023/01/20 09:36:20;;;;;;;4.85;0.68;;;16.40;70.40;;;;;;10486569;28;20048;-26
2023/01/20 09:57:50;;;;;;;3.30;0.63;;;15.40;81.30;;;;;;10489937;28;20048;-26
2023/01/20 10:03:02;;;;;;;0.57;0.40;;;11.50;97.30;;;;;;10483074;28;20037;-25
2023/01/20 10:08:08;;;;;;;2.90;0.55;;;14.80;85.70;;;;;;10491004;28;20044;-27
2023/01/20 10:13:17;;;;;;;2.28;0.63;;;15.50;75.90;;;;;;10496233;28;20079;-25
2023/01/20 10:18:24;;;;;;;1.02;0.43;;;14.20;76.40;;;;;;10492625;28;20051;-24
2023/01/20 10:23:30;;;;;;;2.03;0.50;;;14.30;81.00;;;;;;10488576;28;20468;-27
2023/01/20 10:28:37;;;;;;;4.43;0.52;;;15.10;83.20;;;;;;10503771;28;20044;-26
2023/01/20 10:33:44;;;;;;;1.15;0.40;;;15.20;77.00;;;;;;10493528;28;20088;-26
2023/01/20 10:38:53;;;;;;;2.67;0.50;;;14.20;90.30;;;;;;10493878;28;20075;-26
2023/01/20 10:43:57;;;;;;;1.85;0.50;;;10.10;99.90;;;;;;10485602;28;20135;-27
2023/01/20 10:49:24;;;;;;;1.50;0.77;;;12.10;99.90;;;;;;10491650;28;20052;-26
2023/01/20 10:54:36;;;;;;;4.97;0.70;;;12.70;97.60;;;;;;10486126;28;20048;-26
2023/01/20 10:59:44;;;;;;;2.92;1.02;;;11.50;99.90;;;;;;10485842;28;20041;-26
2023/01/20 11:04:54;;;;;;;2.83;0.65;;;12.30;95.40;;;;;;10485071;28;20098;-26
2023/01/20 11:09:55;;;;;;;3.30;1.02;;;13.70;94.30;;;;;;10486897;28;20127;-27
2023/01/20 11:15:00;;;;;;;8.40;1.27;;;12.90;91.50;;;;;;10488314;28;20139;-26
2023/01/20 11:20:07;;;;;;;11.57;2.03;;;9.40;99.90;;;;;;10485336;28;20067;-26
2023/01/20 11:25:24;;;;;;;10.40;1.70;;;10.70;99.90;;;;;;10485915;28;20483;-26
2023/01/20 11:30:28;;;;;;;8.07;1.40;;;10.70;99.90;;;;;;10486737;28;20461;-26
2023/01/20 11:35:31;;;;;;;6.20;1.75;;;9.90;99.90;;;;;;10487051;28;20036;-25
2023/01/20 11:40:33;;;;;;;11.73;1.88;;;9.70;99.90;;;;;;10486920;28;20443;-28
2023/01/20 11:45:36;;;;;;;12.20;2.03;;;8.80;99.90;;;;;;10497715;28;20102;-26
2023/01/20 11:50:41;;;;;;;9.20;1.25;;;10.60;99.90;;;;;;10485609;28;20072;-25
2023/01/20 11:55:48;;;;;;;11.23;1.85;;;9.20;99.90;;;;;;10483493;28;20135;-27
2023/01/20 12:00:52;;;;;;;2.50;1.00;;;10.60;99.90;;;;;;10491581;28;20535;-26
2023/01/20 12:06:02;;;;;;;1.20;0.60;;;11.30;91.70;;;;;;10493211;28;20586;-25
2023/01/20 12:11:07;;;;;;;2.42;0.60;;;16.00;80.30;;;;;;10494106;28;20063;-26
2023/01/20 12:16:11;;;;;;;6.38;0.80;;;16.60;73.40;;;;;;10494595;28;20127;-26
2023/01/20 12:21:17;;;;;;;2.30;0.77;;;16.30;75.20;;;;;;10494435;28;20048;-27
2023/01/20 12:26:21;;;;;;;3.45;0.82;;;17.20;68.00;;;;;;10493423;28;20067;-27
2023/01/20 12:31:23;;;;;;;4.00;0.90;;;17.50;66.20;;;;;;10498035;28;20424;-25
2023/01/20 12:36:40;;;;;;;;;;;17.50;65.30;;;;;;10488350;28;20052;-27
2023/01/20 12:42:16;;;;;;;3.13;0.80;;;17.60;64.70;;;;;;10491415;28;19963;-26
2023/01/20 12:47:36;;;;;;;2.90;0.65;;;17.70;64.20;;;;;;10492055;28;20044;-27
2023/01/20 12:52:53;;;;;;;3.88;0.70;;;17.70;63.90;;;;;;10490096;28;20064;-27
2023/01/20 12:58:13;;;;;;;2.97;0.80;;;17.30;60.40;;;;;;10491894;28;20074;-27
2023/01/20 13:03:55;;;;;;;5.25;0.65;;;17.80;63.50;;;;;;10486395;28;20497;-29
2023/01/20 13:09:13;;;;;;;2.55;0.90;;;17.80;63.80;;;;;;10493640;28;20121;-29
2023/01/20 13:14:20;;;;;;;10.25;1.38;;;15.20;88.20;;;;;;10493607;28;20162;-26
2023/01/20 13:19:29;;;;;;;7.43;1.20;;;14.30;88.20;;;;;;10487546;28;20048;-27
2023/01/20 13:24:31;;;;;;;4.38;1.15;;;17.30;72.90;;;;;;10492449;28;20059;-27
2023/01/20 13:29:53;;;;;;;9.02;1.23;;;17.80;67.80;;;;;;10499913;28;20094;-29
2023/01/20 13:34:56;;;;;;;13.30;1.38;;;17.60;69.10;;;;;;10506756;28;20058;-27
2023/01/20 13:39:59;;;;;;;;;;;17.40;70.00;;;;;;10498248;28;20093;-26
2023/01/20 13:45:21;;;;;;;10.13;1.33;;;17.40;69.60;;;;;;10490765;28;19959;-28
2023/01/20 13:50:26;;;;;;;8.13;1.88;;;17.40;70.20;;;;;;10486980;28;20045;-25
2023/01/20 13:55:28;;;;;;;9.52;1.85;;;17.50;69.20;;;;;;10487295;28;20447;-26
2023/01/20 14:00:31;;;;;;;3.45;0.98;;;17.50;69.50;;;;;;10493856;28;20041;-26
2023/01/20 14:05:34;;;;;;;4.45;1.30;;;17.50;69.10;;;;;;10480227;28;20041;-25
2023/01/20 14:10:36;;;;;;;4.25;0.70;;;17.50;68.80;;;;;;10494996;28;20052;-28
2023/01/20 14:15:40;;;;;;;4.10;1.02;;;17.60;68.40;;;;;;10493608;28;20055;-27
2023/01/20 14:20:45;;;;;;;7.03;1.10;;;17.50;68.70;;;;;;10487532;28;20051;-27
2023/01/20 14:25:57;;;;;;;5.47;0.90;;;17.70;68.40;;;;;;10490905;28;20051;-25
2023/01/20 14:31:23;;;;;;;4.63;0.95;;;17.60;68.40;;;;;;10491466;28;20105;-26
2023/01/20 14:36:27;;;;;;;4.28;1.17;;;17.60;68.60;;;;;;10497940;28;20089;-26
2023/01/20 14:41:47;;;;;;;3.58;1.40;;;17.70;68.30;;;;;;10500686;28;20114;-26
2023/01/20 14:46:52;;;;;;;5.93;1.45;;;17.60;68.70;;;;;;10499857;28;20040;-25
2023/01/20 14:51:55;;;;;;;7.63;1.30;;;17.60;68.50;;;;;;10491406;28;20169;-26
2023/01/20 14:56:58;;;;;;;3.60;1.20;;;17.70;68.30;;;;;;10491238;28;20646;-26
2023/01/20 15:02:07;;;;;;;3.60;0.98;;;17.70;67.90;;;;;;10487582;28;20040;-26
2023/01/20 15:07:17;;;;;;;5.50;1.13;;;17.70;68.40;;;;;;10487978;28;20048;-26
2023/01/20 15:12:34;;;;;;;6.75;0.80;;;17.70;68.10;;;;;;10469842;28;20071;-27
2023/01/20 15:17:56;;;;;;;2.22;0.90;;;17.80;67.70;;;;;;10480089;28;20052;-27
2023/01/20 15:22:59;;;;;;;1.73;0.82;;;17.80;68.70;;;;;;10486080;28;20041;-25
2023/01/20 15:28:01;;;;;;;3.08;0.80;;;18.00;68.70;;;;;;10496757;28;20059;-26
2023/01/20 15:33:08;;;;;;;2.28;0.70;;;17.90;69.30;;;;;;10493241;28;20072;-25
2023/01/20 15:38:12;;;;;;;2.03;0.82;;;18.00;69.30;;;;;;10496688;28;20044;-27
2023/01/20 15:43:15;;;;;;;5.40;1.40;;;17.80;70.20;;;;;;10495156;28;20110;-25
2023/01/20 15:48:21;;;;;;;5.47;1.25;;;18.00;69.90;;;;;;10503512;28;20880;-25
2023/01/20 15:53:23;;;;;;;2.70;0.90;;;18.00;69.90;;;;;;10492850;28;20059;-26
2023/01/20 15:58:28;;;;;;;4.95;1.38;;;18.00;69.90;;;;;;10494149;28;20102;-26
2023/01/20 16:03:34;;;;;;;2.15;0.90;;;18.00;69.90;;;;;;10492825;28;20052;-26
2023/01/20 16:08:38;;;;;;;1.67;1.05;;;18.10;69.40;;;;;;10493672;28;20040;-27
2023/01/20 16:13:40;;;;;;;3.08;0.85;;;18.50;69.60;;;;;;10506130;28;20665;-25
2023/01/20 16:18:43;;;;;;;3.63;0.80;;;18.20;70.60;;;;;;10500934;28;20048;-25
2023/01/20 16:23:45;;;;;;;2.80;0.85;;;17.80;72.50;;;;;;10503733;28;20174;-27
2023/01/20 16:28:47;;;;;;;4.55;1.23;;;17.60;74.20;;;;;;10495207;28;20063;-25
2023/01/20 16:33:52;;;;;;;1.65;0.95;;;17.70;74.20;;;;;;10501453;28;20049;-24
2023/01/20 16:38:55;;;;;;;2.35;0.80;;;17.60;74.80;;;;;;10479729;28;20052;-26
2023/01/20 16:43:57;;;;;;;2.42;1.25;;;17.20;76.90;;;;;;10488277;28;20056;-28
2023/01/20 16:49:02;;;;;;;;;;;17.50;75.30;;;;;;10486701;28;20052;-26
2023/01/20 16:54:04;;;;;;;0.70;0.70;;;17.50;74.70;;;;;;10487547;28;19966;-26
2023/01/20 16:59:06;;;;;;;9.43;3.23;;;17.50;74.50;;;;;;10483486;28;20489;-25
2023/01/20 17:04:10;;;;;;;3.40;2.05;;;16.30;80.80;;;;;;10479938;28;20061;-26
2023/01/20 17:09:12;;;;;;;2.60;1.35;;;17.10;76.70;;;;;;10498451;28;20160;-26
2023/01/20 17:14:14;;;;;;;;;;;17.40;74.90;;;;;;10482591;28;20503;-27
2023/01/20 17:19:17;;;;;;;1.83;1.25;;;17.40;74.70;;;;;;10497099;28;19924;-26
2023/01/20 17:24:19;;;;;;;1.48;1.05;;;17.30;75.50;;;;;;10490566;28;20134;-27
2023/01/20 17:29:21;;;;;;;5.07;2.00;;;17.40;75.90;;;;;;10486242;28;20088;-25
2023/01/20 17:34:25;;;;;;;8.25;2.72;;;16.80;78.80;;;;;;10484298;28;20052;-28
2023/01/20 17:39:26;;;;;;;5.20;2.50;;;17.00;78.10;;;;;;10485569;28;20040;-27
2023/01/20 17:44:28;;;;;;;3.90;2.00;;;17.20;77.20;;;;;;10488878;28;20056;-25
2023/01/20 17:49:31;;;;;;;5.27;2.47;;;17.20;76.90;;;;;;10491875;28;20049;-27
2023/01/20 17:54:34;;;;;;;10.15;3.88;;;17.40;77.20;;;;;;10480282;28;20091;-27
2023/01/20 17:59:35;;;;;;;10.52;3.38;;;16.80;79.10;;;;;;10494135;28;20044;-26
2023/01/20 18:04:39;;;;;;;14.07;3.23;;;17.40;77.70;;;;;;10484148;28;20135;-26
2023/01/20 18:09:40;;;;;;;12.13;3.70;;;17.30;77.60;;;;;;10481131;28;20483;-26
2023/01/20 18:14:42;;;;;;;12.03;3.67;;;17.20;78.70;;;;;;10486021;28;20056;-27
2023/01/20 18:19:46;;;;;;;13.25;3.40;;;17.20;78.40;;;;;;10490814;28;20059;-25
2023/01/20 18:24:48;;;;;;;9.85;3.22;;;17.20;78.40;;;;;;10493698;28;20126;-25
2023/01/20 18:29:50;;;;;;;6.40;3.70;;;16.90;79.30;;;;;;10492272;28;20094;-26
2023/01/20 18:34:53;;;;;;;9.40;2.97;;;16.90;79.60;;;;;;10495420;28;20058;-25
2023/01/20 18:39:55;;;;;;;6.38;2.90;;;16.90;79.40;;;;;;10485184;28;20060;-26
2023/01/20 18:44:57;;;;;;;6.10;2.67;;;16.60;81.50;;;;;;10488313;28;20133;-26
2023/01/20 18:50:00;;;;;;;3.67;2.17;;;16.40;80.70;;;;;;10496621;28;20076;-26
2023/01/20 18:55:02;;;;;;;7.28;2.22;;;16.80;80.00;;;;;;10482368;28;20528;-27
2023/01/20 19:00:05;;;;;;;6.30;2.00;;;16.70;77.90;;;;;;10485398;28;20049;-25
2023/01/20 19:05:09;;;;;;;6.22;2.20;;;16.80;80.40;;;;;;10489065;28;20148;-26
2023/01/20 19:10:11;;;;;;;6.75;2.45;;;16.50;81.50;;;;;;10490831;28;20055;-26
2023/01/20 19:15:13;;;;;;;6.35;2.53;;;16.60;81.00;;;;;;10487878;28;20048;-26
2023/01/20 19:20:19;;;;;;;5.57;2.60;;;16.60;78.10;;;;;;10479150;28;20075;-26
2023/01/20 19:25:22;;;;;;;3.30;1.85;;;16.50;81.10;;;;;;10480802;28;20753;-25
2023/01/20 19:30:24;;;;;;;4.35;1.85;;;16.90;79.70;;;;;;10487010;28;20518;-27
2023/01/20 19:35:30;;;;;;;8.40;2.13;;;17.10;79.20;;;;;;10484605;28;20048;-29
2023/01/20 19:40:32;;;;;;;4.25;1.75;;;17.40;77.80;;;;;;10488695;28;20082;-26
2023/01/20 19:45:36;;;;;;;6.83;2.20;;;17.50;76.50;;;;;;10476643;28;20463;-27
2023/01/20 19:50:40;;;;;;;10.88;2.17;;;17.60;75.60;;;;;;10493598;28;20047;-25
2023/01/20 19:55:42;;;;;;;6.85;2.40;;;17.60;75.10;;;;;;10488623;28;20196;-26
2023/01/20 20:00:44;;;;;;;10.40;2.92;;;17.70;73.90;;;;;;10492761;28;20111;-26
2023/01/20 20:05:47;;;;;;;8.30;2.55;;;17.50;74.60;;;;;;10483922;28;20041;-26
2023/01/20 20:10:49;;;;;;;12.70;2.67;;;17.40;76.10;;;;;;10482523;28;20056;-26
2023/01/20 20:16:00;;;;;;;10.68;2.88;;;17.40;75.70;;;;;;10491485;28;20160;-26
2023/01/20 20:21:04;;;;;;;5.75;2.13;;;17.40;75.80;;;;;;10497282;28;21074;-25
2023/01/20 20:26:10;;;;;;;9.23;2.20;;;17.30;76.20;;;;;;10503258;28;20044;-25
2023/01/20 20:31:12;;;;;;;9.10;2.00;;;17.40;76.00;;;;;;10499075;28;20153;-25
2023/01/20 20:36:15;;;;;;;11.77;3.80;;;17.40;76.10;;;;;;10483734;28;20110;-26
2023/01/20 20:41:18;;;;;;;4.20;2.00;;;17.20;76.40;;;;;;10487950;28;20546;-25
2023/01/20 20:46:20;;;;;;;5.43;2.22;;;17.30;76.40;;;;;;10483862;28;20052;-26
2023/01/20 20:51:24;;;;;;;11.75;2.92;;;17.20;76.60;;;;;;10502098;28;20049;-27
2023/01/20 20:56:30;;;;;;;12.77;2.30;;;17.20;76.40;;;;;;10495571;28;20045;-26
2023/01/20 21:01:33;;;;;;;6.10;2.17;;;17.20;76.40;;;;;;10504676;28;20051;-26
2023/01/20 21:06:36;;;;;;;5.22;2.00;;;17.20;76.40;;;;;;10509550;28;20094;-28
2023/01/20 21:11:38;;;;;;;4.78;2.15;;;17.10;76.50;;;;;;10503045;28;20603;-26
2023/01/20 21:16:40;;;;;;;9.87;3.07;;;17.20;76.50;;;;;;10503170;28;20092;-26
2023/01/20 21:21:43;;;;;;;7.20;2.50;;;17.20;75.90;;;;;;10502279;28;20546;-26
2023/01/20 21:26:45;;;;;;;7.70;3.78;;;17.10;76.50;;;;;;10510175;28;20556;-27
2023/01/20 21:31:49;;;;;;;8.77;3.30;;;17.00;76.50;;;;;;10510565;28;20056;-27
2023/01/20 21:36:52;;;;;;;9.13;3.72;;;16.90;77.10;;;;;;10487921;28;20420;-26
2023/01/20 21:41:54;;;;;;;8.65;3.33;;;16.80;77.20;;;;;;10492324;28;20049;-26
2023/01/20 21:46:56;;;;;;;5.57;3.17;;;16.70;77.20;;;;;;10497071;28;20224;-25
2023/01/20 21:57:20;;;;;;;4.97;2.90;;;16.60;77.00;;;;;;10500394;28;20056;-26
2023/01/20 22:02:22;;;;;;;6.47;3.50;;;16.60;77.20;;;;;;10492941;28;20443;-26
2023/01/20 22:07:26;;;;;;;6.60;3.03;;;16.50;77.40;;;;;;10488767;28;20068;-26
2023/01/20 22:12:32;;;;;;;4.68;3.10;;;16.50;75.70;;;;;;10492962;28;20080;-25
2023/01/20 22:17:34;;;;;;;5.65;2.60;;;16.50;77.40;;;;;;10503579;28;20109;-26
2023/01/20 22:22:37;;;;;;;6.03;2.75;;;16.50;77.90;;;;;;10498945;28;20111;-25
2023/01/20 22:27:39;;;;;;;5.95;3.25;;;16.40;77.90;;;;;;10491534;28;20040;-25
2023/01/20 22:32:40;;;;;;;6.60;3.30;;;16.30;77.70;;;;;;10485545;28;20055;-26
2023/01/20 22:37:44;;;;;;;10.37;2.97;;;16.40;77.70;;;;;;10495396;28;20121;-27
2023/01/20 22:42:45;;;;;;;5.50;3.22;;;16.30;77.80;;;;;;10482922;28;20118;-26
2023/01/20 22:47:47;;;;;;;5.10;3.20;;;16.30;77.80;;;;;;10479980;28;20076;-27
2023/01/20 22:52:50;;;;;;;4.60;2.97;;;16.30;77.90;;;;;;10491509;28;20075;-26
2023/01/20 22:57:52;;;;;;;5.22;3.20;;;16.20;77.80;;;;;;10492245;28;20113;-26
2023/01/20 23:02:54;;;;;;;9.10;3.20;;;16.20;77.60;;;;;;10487237;28;20047;-27
2023/01/20 23:07:57;;;;;;;6.53;2.70;;;16.10;77.50;;;;;;10490519;28;20127;-27
2023/01/20 23:12:59;;;;;;;7.50;3.28;;;16.10;77.70;;;;;;10481519;28;20133;-25
2023/01/20 23:18:01;;;;;;;4.67;2.93;;;16.00;77.30;;;;;;10481915;28;20072;-27
2023/01/20 23:23:05;;;;;;;6.50;3.80;;;16.00;77.20;;;;;;10496689;28;20525;-26
2023/01/20 23:28:07;;;;;;;7.47;3.45;;;16.00;77.30;;;;;;10486927;28;20060;-30
2023/01/20 23:33:10;;;;;;;7.37;3.43;;;16.00;77.00;;;;;;10493305;28;20106;-26
2023/01/20 23:38:13;;;;;;;5.78;4.00;;;15.90;77.20;;;;;;10484220;28;20060;-25
2023/01/20 23:43:15;;;;;;;5.85;3.30;;;15.90;77.10;;;;;;10499134;28;20075;-26
2023/01/20 23:48:17;;;;;;;10.03;3.50;;;15.80;77.10;;;;;;10492555;28;20143;-23
2023/01/20 23:53:20;;;;;;;5.18;3.10;;;15.80;76.80;;;;;;10495405;28;20404;-23
2023/01/20 23:58:22;;;;;;;6.05;3.30;;;15.80;77.60;;;;;;10493860;28;21383;-25
